createdAt,value
2019-04-22T00:00:40.736Z,43.70
2019-04-22T00:03:14.121Z,44.00
2019-04-22T00:06:00.944Z,44.00
2019-04-22T00:08:38.962Z,44.30
2019-04-22T00:11:14.421Z,44.00
2019-04-22T00:13:46.808Z,43.50
2019-04-22T00:16:07.420Z,43.70
2019-04-22T00:18:57.828Z,43.70
2019-04-22T00:21:21.454Z,44.00
2019-04-22T00:23:46.809Z,44.60
2019-04-22T00:26:16.141Z,44.00
2019-04-22T00:28:51.951Z,43.90
2019-04-22T00:31:25.428Z,44.20
2019-04-22T00:33:53.369Z,44.40
2019-04-22T00:36:25.563Z,44.30
2019-04-22T00:38:59.043Z,44.30
2019-04-22T00:41:34.147Z,45.20
2019-04-22T00:44:02.892Z,44.20
2019-04-22T00:46:33.029Z,44.70
2019-04-22T00:49:49.032Z,45.50
2019-04-22T00:51:36.414Z,44.80
2019-04-22T00:54:03.307Z,44.90
2019-04-22T00:56:32.590Z,45.20
2019-04-22T00:59:06.772Z,45.60
2019-04-22T01:01:41.002Z,45.50
2019-04-22T01:04:15.027Z,45.30
2019-04-22T01:06:38.626Z,45.60
2019-04-22T01:09:10.987Z,45.90
2019-04-22T01:11:37.367Z,45.90
2019-04-22T01:14:17.776Z,46.10
2019-04-22T01:16:46.135Z,46.00
2019-04-22T01:19:16.679Z,46.00
2019-04-22T01:21:44.873Z,46.90
2019-04-22T01:24:17.769Z,46.90
2019-04-22T01:26:43.606Z,47.10
2019-04-22T01:29:08.320Z,46.80
2019-04-22T01:31:34.382Z,46.40
2019-04-22T01:34:16.380Z,46.60
2019-04-22T01:36:52.867Z,46.40
2019-04-22T01:39:33.835Z,46.40
2019-04-22T01:42:05.448Z,47.20
2019-04-22T01:47:10.082Z,47.30
2019-04-22T01:49:41.745Z,47.50
2019-04-22T01:52:12.867Z,47.50
2019-04-22T01:54:52.707Z,47.20
2019-04-22T01:57:10.936Z,47.60
2019-04-22T01:59:43.143Z,47.40
2019-04-22T02:02:28.845Z,47.80
2019-04-22T02:07:23.450Z,48.90
2019-04-22T02:12:25.901Z,48.40
2019-04-22T02:14:52.245Z,48.40
2019-04-22T02:17:32.844Z,49.10
2019-04-22T02:19:59.104Z,50.10
2019-04-22T02:22:41.713Z,50.50
2019-04-22T02:24:59.101Z,50.40
2019-04-22T02:27:39.030Z,50.80
2019-04-22T02:29:58.435Z,49.70
2019-04-22T02:32:48.624Z,49.90
2019-04-22T02:35:11.238Z,50.50
2019-04-22T02:37:54.514Z,50.00
2019-04-22T02:40:14.015Z,50.00
2019-04-22T02:42:34.898Z,50.20
2019-04-22T02:45:07.296Z,50.60
2019-04-22T02:47:42.249Z,50.70
2019-04-22T02:50:08.939Z,51.40
2019-04-22T02:52:43.452Z,51.00
2019-04-22T02:55:15.769Z,50.60
2019-04-22T03:00:33.033Z,50.50
2019-04-22T03:03:18.682Z,50.40
2019-04-22T03:05:35.161Z,50.90
2019-04-22T03:08:04.007Z,51.10
2019-04-22T03:10:29.862Z,50.70
2019-04-22T03:13:00.471Z,50.90
2019-04-22T03:15:26.375Z,50.90
2019-04-22T03:18:01.187Z,51.60
2019-04-22T03:20:26.476Z,52.20
2019-04-22T03:28:02.661Z,53.20
2019-04-22T03:35:54.580Z,52.00
2019-04-22T03:38:32.174Z,52.00
2019-04-22T03:41:03.316Z,52.00
2019-04-22T03:43:27.412Z,53.00
2019-04-22T03:46:02.078Z,53.40
2019-04-22T03:48:23.441Z,53.30
2019-04-22T03:50:50.987Z,53.20
2019-04-22T03:53:38.668Z,53.40
2019-04-22T03:55:57.546Z,53.90
2019-04-22T03:58:24.185Z,54.60
2019-04-22T04:00:55.531Z,54.90
2019-04-22T04:03:28.976Z,54.70
2019-04-22T04:06:02.162Z,54.80
2019-04-22T04:13:33.825Z,54.70
2019-04-22T04:16:03.169Z,55.20
2019-04-22T04:18:46.675Z,55.30
2019-04-22T04:21:22.805Z,54.50
2019-04-22T04:26:42.526Z,54.70
2019-04-22T04:31:25.532Z,54.70
2019-04-22T04:38:51.894Z,54.80
2019-04-22T04:43:58.777Z,55.00
2019-04-22T04:46:27.247Z,55.30
2019-04-22T04:49:02.874Z,55.60
2019-04-22T04:54:00.245Z,56.50
2019-04-22T04:56:34.394Z,56.80
2019-04-22T04:59:05.290Z,56.60
2019-04-22T05:06:36.848Z,57.30
2019-04-22T05:09:13.358Z,57.50
2019-04-22T05:11:43.077Z,57.40
2019-04-22T05:14:06.378Z,57.80
2019-04-22T05:21:50.179Z,56.50
2019-04-22T05:24:09.628Z,57.60
2019-04-22T05:26:40.233Z,57.40
2019-04-22T05:29:07.992Z,56.90
2019-04-22T05:31:37.250Z,58.00
2019-04-22T05:34:08.144Z,57.80
2019-04-22T05:36:35.925Z,58.20
2019-04-22T05:39:06.114Z,58.40
2019-04-22T05:41:43.442Z,58.40
2019-04-22T05:44:08.416Z,58.80
2019-04-22T05:46:40.814Z,59.60
2019-04-22T05:49:23.912Z,60.30
2019-04-22T05:51:42.051Z,59.10
2019-04-22T05:54:19.008Z,58.90
2019-04-22T05:56:39.533Z,58.40
2019-04-22T05:59:22.810Z,59.40
2019-04-22T06:01:59.800Z,61.20
2019-04-22T06:04:14.719Z,59.20
2019-04-22T06:06:46.772Z,58.60
2019-04-22T06:09:24.773Z,59.30
2019-04-22T06:11:51.535Z,59.50
2019-04-22T06:14:24.906Z,60.60
2019-04-22T06:17:08.303Z,59.50
2019-04-22T06:19:31.304Z,60.60
2019-04-22T06:22:04.260Z,59.50
2019-04-22T06:24:31.414Z,59.10
2019-04-22T06:29:36.546Z,59.40
2019-04-22T06:34:43.158Z,59.50
2019-04-22T06:37:14.790Z,59.10
2019-04-22T06:39:48.580Z,59.50
2019-04-22T06:42:19.562Z,60.00
2019-04-22T06:44:49.713Z,60.60
2019-04-22T06:47:27.169Z,60.10
2019-04-22T06:49:49.527Z,60.30
2019-04-22T06:52:18.312Z,60.70
2019-04-22T06:54:54.835Z,60.30
2019-04-22T06:57:24.300Z,61.20
2019-04-22T06:59:56.669Z,60.50
2019-04-22T07:04:56.471Z,60.90
2019-04-22T07:07:24.128Z,60.80
2019-04-22T07:10:06.411Z,60.80
2019-04-22T07:12:30.555Z,59.90
2019-04-22T07:15:08.532Z,60.20
2019-04-22T07:17:35.752Z,60.10
2019-04-22T07:20:03.856Z,60.20
2019-04-22T07:22:36.265Z,61.00
2019-04-22T07:25:06.525Z,60.20
2019-04-22T07:27:34.782Z,60.00
2019-04-22T07:30:24.985Z,59.70
2019-04-22T07:33:01.005Z,60.40
2019-04-22T07:35:19.532Z,59.90
2019-04-22T07:40:09.920Z,58.90
2019-04-22T07:42:45.177Z,58.50
2019-04-22T07:45:16.607Z,58.90
2019-04-22T07:47:44.636Z,59.00
2019-04-22T07:50:31.010Z,58.90
2019-04-22T07:52:44.941Z,59.10
2019-04-22T07:55:12.884Z,57.90
2019-04-22T07:58:05.209Z,57.90
2019-04-22T08:00:22.737Z,57.70
2019-04-22T08:02:51.572Z,57.00
2019-04-22T08:05:24.728Z,55.70
2019-04-22T08:08:00.678Z,55.90
2019-04-22T08:10:35.194Z,55.80
2019-04-22T08:12:57.697Z,56.10
2019-04-22T08:18:22.150Z,55.40
2019-04-22T08:20:48.732Z,54.70
2019-04-22T08:23:16.390Z,53.60
2019-04-22T08:25:47.432Z,53.90
2019-04-22T08:28:25.937Z,53.30
2019-04-22T08:30:56.676Z,53.30
2019-04-22T08:33:29.518Z,53.70
2019-04-22T08:36:06.126Z,53.50
2019-04-22T08:39:25.259Z,52.70
2019-04-22T08:41:26.130Z,53.10
2019-04-22T08:43:56.243Z,54.20
2019-04-22T08:46:25.322Z,52.70
2019-04-22T08:48:52.799Z,53.00
2019-04-22T08:56:29.525Z,49.50
2019-04-22T08:58:57.311Z,48.80
2019-04-22T09:03:58.531Z,49.10
2019-04-22T09:06:48.015Z,48.30
2019-04-22T09:09:02.048Z,48.40
2019-04-22T09:11:39.665Z,48.10
2019-04-22T09:14:03.173Z,47.80
2019-04-22T09:19:10.881Z,47.90
2019-04-22T09:29:14.642Z,46.30
2019-04-22T09:32:00.387Z,45.90
2019-04-22T09:34:06.945Z,44.90
2019-04-22T09:36:44.313Z,44.40
2019-04-22T09:39:19.443Z,44.20
2019-04-22T09:41:46.544Z,43.90
2019-04-22T09:44:16.418Z,44.30
2019-04-22T09:46:49.938Z,43.50
2019-04-22T09:49:27.934Z,43.50
2019-04-22T09:51:54.101Z,43.10
2019-04-22T09:54:31.362Z,43.20
2019-04-22T09:56:55.302Z,43.40
2019-04-22T09:59:48.605Z,42.50
2019-04-22T10:04:28.533Z,42.60
2019-04-22T10:06:54.648Z,41.70
2019-04-22T10:12:02.587Z,41.80
2019-04-22T10:14:40.018Z,42.60
2019-04-22T10:17:06.791Z,39.70
2019-04-22T10:19:38.722Z,40.60
2019-04-22T10:24:44.613Z,39.50
2019-04-22T10:27:16.199Z,39.80
2019-04-22T10:29:47.391Z,39.50
2019-04-22T10:32:11.264Z,39.60
2019-04-22T10:34:34.706Z,39.00
2019-04-22T10:36:59.933Z,39.20
2019-04-22T10:39:37.875Z,40.20
2019-04-22T10:41:58.893Z,40.10
2019-04-22T10:44:28.909Z,39.30
2019-04-22T10:46:58.383Z,38.40
2019-04-22T10:49:28.755Z,38.90
2019-04-22T10:51:58.455Z,37.90
2019-04-22T10:54:29.480Z,37.50
2019-04-22T10:56:59.135Z,37.10
2019-04-22T10:59:28.953Z,38.00
2019-04-22T11:02:01.441Z,36.30
2019-04-22T11:04:32.160Z,36.10
2019-04-22T11:07:07.109Z,36.40
2019-04-22T11:09:46.801Z,36.10
2019-04-22T11:12:11.696Z,36.70
2019-04-22T11:14:37.730Z,36.10
2019-04-22T11:17:08.902Z,34.90
2019-04-22T11:19:39.485Z,35.60
2019-04-22T11:22:20.022Z,34.90
2019-04-22T11:24:42.719Z,34.40
2019-04-22T11:27:12.670Z,34.40
2019-04-22T11:29:43.593Z,34.80
2019-04-22T11:32:14.729Z,34.00
2019-04-22T11:34:44.943Z,33.30
2019-04-22T11:37:14.756Z,33.90
2019-04-22T11:39:44.905Z,33.50
2019-04-22T11:42:14.564Z,32.80
2019-04-22T11:44:45.330Z,33.10
2019-04-22T11:47:15.296Z,33.40
2019-04-22T11:49:45.861Z,33.00
2019-04-22T11:52:17.253Z,32.70
2019-04-22T11:54:46.815Z,33.00
2019-04-22T11:57:17.044Z,33.80
2019-04-22T11:59:47.007Z,31.70
2019-04-22T12:02:21.541Z,32.10
2019-04-22T12:04:53.893Z,31.80
2019-04-22T12:07:24.404Z,31.20
2019-04-22T12:09:55.438Z,31.70
2019-04-22T12:12:25.599Z,31.30
2019-04-22T12:14:56.371Z,31.40
2019-04-22T12:17:26.402Z,31.20
2019-04-22T12:19:55.979Z,31.30
2019-04-22T12:22:25.342Z,30.40
2019-04-22T12:24:56.474Z,31.00
2019-04-22T12:27:30.053Z,30.40
2019-04-22T12:30:02.987Z,29.80
2019-04-22T12:32:33.567Z,30.70
2019-04-22T12:35:03.261Z,30.00
2019-04-22T12:37:40.666Z,30.00
2019-04-22T12:40:06.563Z,30.00
2019-04-22T12:42:37.207Z,29.20
2019-04-22T12:45:08.254Z,30.00
2019-04-22T12:47:40.252Z,29.40
2019-04-22T12:50:22.408Z,29.20
2019-04-22T12:52:54.920Z,28.80
2019-04-22T12:55:19.590Z,28.10
2019-04-22T12:57:53.374Z,28.00
2019-04-22T13:00:20.713Z,28.80
2019-04-22T13:02:51.394Z,28.70
2019-04-22T13:05:21.000Z,28.80
2019-04-22T13:07:51.574Z,28.80
2019-04-22T13:10:21.969Z,28.80
2019-04-22T13:12:52.954Z,28.90
2019-04-22T13:15:23.971Z,28.60
2019-04-22T13:18:04.482Z,29.10
2019-04-22T13:20:26.059Z,28.90
2019-04-22T13:22:56.833Z,28.80
2019-04-22T13:25:28.850Z,28.70
2019-04-22T13:27:57.661Z,29.00
2019-04-22T13:30:28.419Z,29.50
2019-04-22T13:32:58.742Z,29.20
2019-04-22T13:35:28.526Z,29.60
2019-04-22T13:37:59.361Z,29.60
2019-04-22T13:40:28.975Z,29.30
2019-04-22T13:42:58.734Z,28.90
2019-04-22T13:45:29.353Z,28.80
2019-04-22T13:48:18.608Z,28.40
2019-04-22T13:55:56.885Z,28.50
2019-04-22T13:58:21.224Z,28.40
2019-04-22T14:00:36.588Z,28.50
2019-04-22T14:03:26.647Z,28.50
2019-04-22T14:05:58.515Z,28.20
2019-04-22T14:08:29.208Z,28.40
2019-04-22T14:11:13.181Z,28.40
2019-04-22T14:13:32.140Z,28.40
2019-04-22T14:16:01.869Z,28.50
2019-04-22T14:18:33.076Z,28.10
2019-04-22T14:21:02.877Z,28.40
2019-04-22T14:23:33.001Z,29.10
2019-04-22T14:26:02.479Z,28.50
2019-04-22T14:28:32.860Z,28.70
2019-04-22T14:31:02.421Z,28.40
2019-04-22T14:33:32.063Z,28.50
2019-04-22T14:36:02.554Z,28.10
2019-04-22T14:38:32.438Z,28.10
2019-04-22T14:41:02.525Z,28.90
2019-04-22T14:44:00.640Z,28.50
2019-04-22T14:46:31.984Z,28.50
2019-04-22T14:49:00.866Z,27.70
2019-04-22T14:51:25.527Z,28.20
2019-04-22T14:53:55.430Z,28.60
2019-04-22T14:56:08.500Z,28.50
2019-04-22T14:58:38.334Z,29.40
2019-04-22T15:01:08.699Z,28.70
2019-04-22T15:03:40.686Z,29.00
2019-04-22T15:06:10.551Z,28.40
2019-04-22T15:08:40.223Z,28.80
2019-04-22T15:11:10.984Z,28.70
2019-04-22T15:13:41.182Z,28.50
2019-04-22T15:16:13.898Z,28.50
2019-04-22T15:18:45.966Z,29.00
2019-04-22T15:21:18.682Z,29.00
2019-04-22T15:23:48.717Z,29.10
2019-04-22T15:26:18.332Z,29.20
2019-04-22T15:28:47.662Z,29.10
2019-04-22T15:31:17.492Z,29.10
2019-04-22T15:33:50.310Z,29.40
2019-04-22T15:36:20.039Z,28.80
2019-04-22T15:38:49.458Z,28.80
2019-04-22T15:41:20.644Z,28.70
2019-04-22T15:43:50.160Z,28.90
2019-04-22T15:46:20.210Z,28.60
2019-04-22T15:48:51.848Z,29.10
2019-04-22T15:51:22.562Z,29.00
2019-04-22T15:53:53.743Z,29.30
2019-04-22T15:56:23.307Z,29.50
2019-04-22T15:58:53.507Z,29.50
2019-04-22T16:01:28.147Z,29.50
2019-04-22T16:03:54.746Z,29.30
2019-04-22T16:06:26.211Z,29.50
2019-04-22T16:08:56.093Z,29.20
2019-04-22T16:11:25.553Z,29.20
2019-04-22T16:13:55.006Z,29.70
2019-04-22T16:16:24.765Z,29.50
2019-04-22T16:18:54.375Z,29.70
2019-04-22T16:21:32.681Z,29.40
2019-04-22T16:24:16.000Z,29.20
2019-04-22T16:26:48.463Z,29.80
2019-04-22T16:29:19.194Z,30.00
2019-04-22T16:31:49.605Z,30.20
2019-04-22T16:34:21.528Z,30.10
2019-04-22T16:36:52.508Z,30.40
2019-04-22T16:39:22.809Z,30.80
2019-04-22T16:41:52.817Z,30.80
2019-04-22T16:44:24.783Z,30.90
2019-04-22T16:46:55.399Z,31.40
2019-04-22T16:49:25.554Z,31.30
2019-04-22T16:51:56.152Z,31.40
2019-04-22T16:54:27.626Z,32.30
2019-04-22T16:56:57.592Z,31.80
2019-04-22T16:59:29.096Z,32.30
2019-04-22T17:02:06.531Z,32.30
2019-04-22T17:04:38.665Z,32.90
2019-04-22T17:07:11.222Z,33.10
2019-04-22T17:09:41.669Z,33.70
2019-04-22T17:12:12.002Z,32.80
2019-04-22T17:14:50.414Z,32.60
2019-04-22T17:17:15.096Z,32.50
2019-04-22T17:19:45.162Z,32.80
2019-04-22T17:22:15.644Z,32.90
2019-04-22T17:24:46.176Z,32.90
2019-04-22T17:27:15.832Z,33.50
2019-04-22T17:29:46.305Z,34.00
2019-04-22T17:32:20.870Z,33.40
2019-04-22T17:34:49.690Z,32.60
2019-04-22T17:37:25.884Z,31.70
2019-04-22T17:40:08.709Z,31.10
2019-04-22T17:42:42.346Z,32.10
2019-04-22T17:45:35.604Z,32.30
2019-04-22T17:48:26.925Z,31.80
2019-04-22T17:50:56.137Z,33.10
2019-04-22T17:53:27.674Z,32.00
2019-04-22T17:56:06.604Z,31.60
2019-04-22T17:58:34.731Z,31.10
2019-04-22T18:01:02.778Z,32.20
2019-04-22T18:03:21.270Z,31.80
2019-04-22T18:05:54.194Z,33.50
2019-04-22T18:08:43.739Z,33.00
2019-04-22T18:11:21.775Z,33.40
2019-04-22T18:13:47.434Z,32.60
2019-04-22T18:16:13.156Z,32.30
2019-04-22T18:18:43.722Z,32.50
2019-04-22T18:21:11.337Z,33.20
2019-04-22T18:23:30.989Z,32.80
2019-04-22T18:26:14.735Z,33.20
2019-04-22T18:28:49.352Z,33.20
2019-04-22T18:31:16.164Z,33.30
2019-04-22T18:33:47.611Z,34.40
2019-04-22T18:36:19.714Z,34.20
2019-04-22T18:41:25.872Z,35.00
2019-04-22T18:43:59.046Z,35.10
2019-04-22T18:46:31.535Z,35.20
2019-04-22T18:49:00.680Z,35.50
2019-04-22T18:51:42.580Z,35.90
2019-04-22T18:54:31.036Z,36.20
2019-04-22T18:57:03.344Z,36.70
2019-04-22T18:59:22.733Z,37.30
2019-04-22T19:01:51.722Z,36.90
2019-04-22T19:04:27.233Z,37.50
2019-04-22T19:07:20.298Z,37.90
2019-04-22T19:09:51.670Z,38.00
2019-04-22T19:12:36.923Z,38.10
2019-04-22T19:14:57.076Z,37.40
2019-04-22T19:20:05.407Z,37.70
2019-04-22T19:22:29.769Z,39.20
2019-04-22T19:24:55.014Z,39.20
2019-04-22T19:27:31.321Z,39.00
2019-04-22T19:30:04.020Z,38.90
2019-04-22T19:32:38.604Z,39.20
2019-04-22T19:35:06.903Z,39.40
2019-04-22T19:37:40.039Z,40.20
2019-04-22T19:40:30.544Z,40.00
2019-04-22T19:45:11.796Z,41.40
2019-04-22T19:47:51.688Z,40.70
2019-04-22T19:50:24.501Z,41.10
2019-04-22T19:52:50.077Z,40.70
2019-04-22T19:55:25.408Z,41.40
2019-04-22T19:57:54.352Z,41.70
2019-04-22T20:00:38.798Z,41.80
2019-04-22T20:03:28.824Z,42.10
2019-04-22T20:05:59.746Z,42.40
2019-04-22T20:08:32.645Z,42.60
2019-04-22T20:11:04.006Z,42.70
2019-04-22T20:13:36.487Z,42.60
2019-04-22T20:15:58.328Z,42.40
2019-04-22T20:21:14.284Z,42.60
2019-04-22T20:23:35.138Z,42.70
2019-04-22T20:26:07.554Z,43.40
2019-04-22T20:28:46.858Z,43.70
2019-04-22T20:31:22.087Z,43.20
2019-04-22T20:33:57.120Z,43.40
2019-04-22T20:36:39.430Z,42.80
2019-04-22T20:38:50.658Z,43.90
2019-04-22T20:41:15.734Z,44.20
2019-04-22T20:43:57.772Z,44.10
2019-04-22T20:46:31.876Z,44.30
2019-04-22T20:49:07.742Z,44.00
2019-04-22T20:51:51.616Z,44.10
2019-04-22T20:54:08.953Z,44.30
2019-04-22T20:56:38.560Z,44.20
2019-04-22T20:59:14.083Z,44.50
2019-04-22T21:01:47.690Z,44.70
2019-04-22T21:04:00.923Z,44.60
2019-04-22T21:06:43.830Z,44.80
2019-04-22T21:09:18.046Z,44.70
2019-04-22T21:11:46.782Z,45.20
2019-04-22T21:14:14.824Z,45.30
2019-04-22T21:16:51.873Z,45.50
2019-04-22T21:19:27.994Z,45.80
2019-04-22T21:21:59.623Z,46.50
2019-04-22T21:24:23.635Z,46.70
2019-04-22T21:27:09.219Z,47.30
2019-04-22T21:29:26.638Z,46.90
2019-04-22T21:32:03.082Z,46.00
2019-04-22T21:34:32.020Z,46.70
2019-04-22T21:37:14.108Z,47.30
2019-04-22T21:39:36.702Z,47.10
2019-04-22T21:42:12.742Z,48.40
2019-04-22T21:44:46.992Z,48.70
2019-04-22T21:47:20.692Z,48.30
2019-04-22T21:50:09.820Z,48.90
2019-04-22T21:52:24.362Z,48.80
2019-04-22T21:54:59.094Z,48.90
2019-04-22T21:57:27.997Z,48.80
2019-04-22T22:00:09.722Z,48.80
2019-04-22T22:04:54.234Z,49.30
2019-04-22T22:07:21.327Z,49.40
2019-04-22T22:10:04.368Z,49.80
2019-04-22T22:12:40.858Z,49.60
2019-04-22T22:15:07.185Z,50.10
2019-04-22T22:17:35.448Z,50.30
2019-04-22T22:20:06.176Z,49.90
2019-04-22T22:22:52.201Z,49.90
2019-04-22T22:25:16.392Z,50.10
2019-04-22T22:27:40.522Z,49.60
2019-04-22T22:30:36.925Z,49.70
2019-04-22T22:32:51.500Z,49.60
2019-04-22T22:35:20.636Z,51.00
2019-04-22T22:37:50.594Z,50.80
2019-04-22T22:40:07.497Z,50.20
2019-04-22T22:42:38.635Z,50.20
2019-04-22T22:45:13.892Z,50.40
2019-04-22T22:47:53.406Z,50.70
2019-04-22T22:50:28.515Z,51.20
2019-04-22T22:53:17.131Z,51.60
2019-04-22T22:55:37.406Z,51.10
2019-04-22T22:58:04.854Z,51.80
2019-04-22T23:00:32.285Z,51.50
2019-04-22T23:03:36.675Z,50.90
2019-04-22T23:05:45.439Z,52.00
2019-04-22T23:08:17.037Z,51.90
2019-04-22T23:10:52.924Z,51.00
2019-04-22T23:13:22.112Z,51.90
2019-04-22T23:15:38.968Z,52.80
2019-04-22T23:17:56.217Z,51.90
2019-04-22T23:20:33.733Z,52.40
2019-04-22T23:23:36.159Z,53.30
2019-04-22T23:25:55.049Z,54.40
2019-04-22T23:28:14.637Z,54.30
2019-04-22T23:31:07.513Z,55.00
2019-04-22T23:33:46.431Z,54.40
2019-04-22T23:36:23.476Z,55.80
2019-04-22T23:39:10.043Z,55.10
2019-04-22T23:46:38.207Z,56.20
2019-04-22T23:49:08.787Z,57.50
2019-04-22T23:51:51.425Z,57.90
2019-04-22T23:54:13.262Z,58.00
2019-04-22T23:56:39.772Z,57.60
2019-04-22T23:59:38.504Z,58.10
